Time;durP1;ratioP1;P1;durP2;ratioP2;P2;SDS_P1;SDS_P2;PMS_P1;PMS_P2;Temp;Humidity;BMP_temperature;BMP_pressure;BME280_temperature;BME280_humidity;BME280_pressure;Samples;Min_cycle;Max_cycle;Signal;HPM_P1;HPM_P2
2023/09/25 00:02:46;;;;;;;4.13;2.80;;;;;;;;;;13007742;22;20351;-85
2023/09/25 00:07:48;;;;;;;2.90;2.40;;;;;;;;;;13008477;22;20424;-89
2023/09/25 00:12:52;;;;;;;3.28;2.25;;;;;;;;;;12987047;22;20355;-88
2023/09/25 00:17:55;;;;;;;4.60;2.30;;;;;;;;;;12985955;22;20383;-89
2023/09/25 00:22:57;;;;;;;3.20;1.80;;;;;;;;;;12985808;22;20424;-89
2023/09/25 00:28:02;;;;;;;3.22;1.85;;;;;;;;;;13008363;22;20363;-89
2023/09/25 00:33:05;;;;;;;2.33;1.60;;;;;;;;;;12986450;22;20397;-89
2023/09/25 00:38:07;;;;;;;2.88;1.85;;;;;;;;;;12987363;22;20379;-89
2023/09/25 00:43:13;;;;;;;2.72;2.00;;;;;;;;;;12993885;22;20366;-89
2023/09/25 00:48:25;;;;;;;3.27;1.80;;;;;;;;;;13007805;22;20354;-89
2023/09/25 00:53:29;;;;;;;2.00;1.70;;;;;;;;;;13008259;22;20401;-89
2023/09/25 00:58:33;;;;;;;1.98;1.60;;;;;;;;;;12986031;22;20448;-87
2023/09/25 01:03:36;;;;;;;1.90;1.60;;;;;;;;;;12985685;22;20834;-87
2023/09/25 01:08:40;;;;;;;2.78;1.60;;;;;;;;;;13007177;22;20370;-87
2023/09/25 01:13:44;;;;;;;1.88;1.50;;;;;;;;;;13007950;22;20428;-87
2023/09/25 01:18:47;;;;;;;3.90;1.73;;;;;;;;;;12984825;22;20378;-88
2023/09/25 01:23:50;;;;;;;1.60;1.50;;;;;;;;;;12985958;22;21008;-88
2023/09/25 01:28:53;;;;;;;2.30;1.77;;;;;;;;;;12985210;22;20436;-88
2023/09/25 01:33:55;;;;;;;2.80;1.73;;;;;;;;;;12985108;22;20424;-88
2023/09/25 01:38:59;;;;;;;2.70;1.60;;;;;;;;;;12996355;22;20416;-88
2023/09/25 01:44:02;;;;;;;2.33;1.73;;;;;;;;;;12985877;22;20512;-88
2023/09/25 01:49:05;;;;;;;3.47;2.00;;;;;;;;;;12984626;22;20362;-88
2023/09/25 01:54:09;;;;;;;3.97;1.80;;;;;;;;;;12984124;22;20367;-88
2023/09/25 01:59:11;;;;;;;2.80;2.03;;;;;;;;;;12978920;22;20390;-88
2023/09/25 02:04:14;;;;;;;2.53;1.90;;;;;;;;;;12984315;22;20393;-88
2023/09/25 02:09:18;;;;;;;4.83;2.20;;;;;;;;;;12984124;22;20896;-88
2023/09/25 02:14:20;;;;;;;2.87;2.10;;;;;;;;;;12984438;22;20421;-88
2023/09/25 02:19:25;;;;;;;5.80;2.20;;;;;;;;;;12982813;22;20367;-88
2023/09/25 02:24:29;;;;;;;3.97;2.08;;;;;;;;;;12984102;22;20389;-88
2023/09/25 02:29:32;;;;;;;3.00;2.17;;;;;;;;;;12984840;22;20421;-88
2023/09/25 02:34:34;;;;;;;3.00;2.05;;;;;;;;;;12988708;22;20397;-88
2023/09/25 02:39:38;;;;;;;2.67;2.10;;;;;;;;;;12984099;22;20375;-89
2023/09/25 02:44:40;;;;;;;3.15;2.00;;;;;;;;;;12984332;22;20437;-88
2023/09/25 02:49:43;;;;;;;2.78;2.10;;;;;;;;;;13005375;22;20853;-88
2023/09/25 02:54:47;;;;;;;3.27;2.17;;;;;;;;;;13005773;22;20396;-88
2023/09/25 02:59:49;;;;;;;4.00;2.40;;;;;;;;;;12984331;22;20358;-87
2023/09/25 03:04:52;;;;;;;3.30;2.40;;;;;;;;;;12984089;22;20366;-87
2023/09/25 03:09:55;;;;;;;4.60;2.30;;;;;;;;;;12985708;22;20393;-88
2023/09/25 03:14:58;;;;;;;4.75;2.33;;;;;;;;;;12988148;22;20382;-86
2023/09/25 03:20:02;;;;;;;4.18;2.70;;;;;;;;;;12988297;22;20440;-88
2023/09/25 03:25:06;;;;;;;3.47;2.20;;;;;;;;;;12988812;22;20428;-87
2023/09/25 03:30:10;;;;;;;3.20;2.40;;;;;;;;;;12988239;22;20439;-87
2023/09/25 03:35:12;;;;;;;4.20;2.70;;;;;;;;;;12988044;22;20370;-88
2023/09/25 03:40:16;;;;;;;3.03;2.20;;;;;;;;;;12987822;22;20424;-88
2023/09/25 03:45:19;;;;;;;2.47;2.28;;;;;;;;;;12986875;22;20363;-88
2023/09/25 03:50:22;;;;;;;3.63;2.50;;;;;;;;;;12988353;22;20366;-88
2023/09/25 03:55:26;;;;;;;4.88;2.45;;;;;;;;;;12986400;22;20382;-88
2023/09/25 04:00:28;;;;;;;5.15;2.80;;;;;;;;;;12987165;22;20367;-88
2023/09/25 04:05:32;;;;;;;4.47;2.90;;;;;;;;;;12987262;22;20417;-88
2023/09/25 04:10:37;;;;;;;4.77;2.90;;;;;;;;;;12986548;22;20359;-88
2023/09/25 04:15:40;;;;;;;2.90;2.58;;;;;;;;;;12987037;22;20378;-88
2023/09/25 04:20:43;;;;;;;3.45;2.50;;;;;;;;;;12994546;22;20429;-88
2023/09/25 04:25:52;;;;;;;2.97;2.42;;;;;;;;;;12989701;22;20362;-86
2023/09/25 04:30:55;;;;;;;4.13;2.75;;;;;;;;;;12985450;22;20389;-87
2023/09/25 04:35:58;;;;;;;3.90;3.10;;;;;;;;;;12986223;22;20440;-88
2023/09/25 04:41:02;;;;;;;5.30;3.80;;;;;;;;;;13008117;22;20389;-88
2023/09/25 04:46:05;;;;;;;3.47;2.67;;;;;;;;;;12985261;22;20436;-88
2023/09/25 04:51:07;;;;;;;3.00;2.42;;;;;;;;;;12984056;22;20401;-88
2023/09/25 04:56:18;;;;;;;3.33;2.22;;;;;;;;;;12985185;22;20378;-88
2023/09/25 05:01:21;;;;;;;3.47;2.38;;;;;;;;;;12984653;22;20370;-89
2023/09/25 05:06:23;;;;;;;3.97;2.20;;;;;;;;;;12984665;22;20657;-89
2023/09/25 05:11:27;;;;;;;2.50;1.50;;;;;;;;;;12984754;22;20424;-89
2023/09/25 05:16:30;;;;;;;4.68;1.70;;;;;;;;;;13006127;22;20927;-89
2023/09/25 05:21:32;;;;;;;3.47;2.00;;;;;;;;;;13005974;22;20370;-89
2023/09/25 05:26:38;;;;;;;3.30;1.50;;;;;;;;;;12982074;22;20436;-89
2023/09/25 05:31:40;;;;;;;3.17;1.80;;;;;;;;;;12979446;22;20371;-89
2023/09/25 05:36:43;;;;;;;4.53;1.92;;;;;;;;;;12978414;22;20417;-91
2023/09/25 05:41:47;;;;;;;6.18;3.13;;;;;;;;;;12979647;22;20421;-88
2023/09/25 05:46:49;;;;;;;3.55;2.30;;;;;;;;;;12975645;22;20881;-89
2023/09/25 05:51:53;;;;;;;4.40;1.67;;;;;;;;;;12977012;22;20698;-89
2023/09/25 05:56:56;;;;;;;2.92;1.80;;;;;;;;;;12982207;22;20386;-89
2023/09/25 06:01:59;;;;;;;2.78;1.50;;;;;;;;;;12983790;22;20436;-89
2023/09/25 06:07:01;;;;;;;3.05;1.80;;;;;;;;;;12983356;22;20834;-89
2023/09/25 06:12:06;;;;;;;2.83;1.57;;;;;;;;;;12996140;22;20823;-89
2023/09/25 06:17:09;;;;;;;3.97;1.80;;;;;;;;;;12983909;22;20679;-89
2023/09/25 06:22:12;;;;;;;2.40;1.50;;;;;;;;;;12983684;22;20400;-89
2023/09/25 06:27:15;;;;;;;1.80;1.55;;;;;;;;;;12984441;22;20355;-90
2023/09/25 06:32:18;;;;;;;5.43;1.48;;;;;;;;;;12984694;22;20358;-89
2023/09/25 06:37:22;;;;;;;5.22;1.77;;;;;;;;;;13003278;22;20405;-90
2023/09/25 06:42:27;;;;;;;3.08;1.50;;;;;;;;;;13004593;22;20826;-89
2023/09/25 06:47:29;;;;;;;46.37;22.37;;;;;;;;;;12983443;22;20459;-90
2023/09/25 06:52:31;;;;;;;8.60;3.85;;;;;;;;;;12982052;22;20393;-89
2023/09/25 06:57:35;;;;;;;7.93;2.20;;;;;;;;;;12982456;22;20382;-89
2023/09/25 07:02:38;;;;;;;1.92;1.40;;;;;;;;;;13001637;22;20354;-90
2023/09/25 07:07:40;;;;;;;2.60;1.10;;;;;;;;;;12982560;22;20358;-89
2023/09/25 07:12:44;;;;;;;224.63;25.80;;;;;;;;;;12981148;22;20893;-91
2023/09/25 07:17:47;;;;;;;1.92;1.00;;;;;;;;;;12983764;22;20432;-90
2023/09/25 07:22:50;;;;;;;4.15;1.40;;;;;;;;;;12982604;22;20358;-91
2023/09/25 07:27:54;;;;;;;2.50;1.10;;;;;;;;;;13003356;22;20362;-90
2023/09/25 07:32:56;;;;;;;2.80;1.20;;;;;;;;;;12983493;22;20398;-90
2023/09/25 07:37:59;;;;;;;3.00;1.00;;;;;;;;;;12987601;22;20387;-90
2023/09/25 07:43:03;;;;;;;2.10;0.93;;;;;;;;;;12982879;22;20358;-90
2023/09/25 07:48:06;;;;;;;3.43;1.17;;;;;;;;;;12982934;22;20367;-89
2023/09/25 07:53:09;;;;;;;1.90;1.17;;;;;;;;;;13002827;22;20389;-91
2023/09/25 07:58:13;;;;;;;1.10;0.98;;;;;;;;;;12983861;22;20382;-90
2023/09/25 08:03:17;;;;;;;3.33;1.60;;;;;;;;;;12985705;22;20359;-91
2023/09/25 08:08:19;;;;;;;1.70;1.07;;;;;;;;;;12984840;22;20355;-90
2023/09/25 08:13:23;;;;;;;2.00;0.98;;;;;;;;;;12982905;22;20420;-90
2023/09/25 08:18:26;;;;;;;2.53;0.90;;;;;;;;;;12981936;22;20386;-88
2023/09/25 08:23:28;;;;;;;1.90;0.80;;;;;;;;;;13003806;22;20401;-91
2023/09/25 08:28:32;;;;;;;1.20;0.82;;;;;;;;;;12982417;22;20366;-89
2023/09/25 08:33:35;;;;;;;1.40;1.00;;;;;;;;;;12981257;22;20424;-90
2023/09/25 08:38:37;;;;;;;1.97;1.20;;;;;;;;;;12980838;22;20424;-90
2023/09/25 08:43:44;;;;;;;2.13;1.50;;;;;;;;;;13003384;22;20367;-90
2023/09/25 08:48:48;;;;;;;1.92;1.00;;;;;;;;;;12981562;22;20371;-91
2023/09/25 08:53:51;;;;;;;1.48;0.90;;;;;;;;;;13003188;22;20355;-89
2023/09/25 08:58:58;;;;;;;2.07;1.03;;;;;;;;;;12980823;22;20386;-91
2023/09/25 09:04:00;;;;;;;1.30;0.90;;;;;;;;;;13002912;22;20420;-91
2023/09/25 09:09:03;;;;;;;3.38;0.70;;;;;;;;;;12980729;22;20401;-89
2023/09/25 09:14:07;;;;;;;1.53;0.83;;;;;;;;;;12981252;22;20363;-89
2023/09/25 09:19:09;;;;;;;1.67;0.70;;;;;;;;;;12979477;22;20413;-91
2023/09/25 09:24:21;;;;;;;1.67;0.60;;;;;;;;;;12996445;22;20396;-90
2023/09/25 09:29:25;;;;;;;1.30;0.80;;;;;;;;;;12980772;22;20367;-91
2023/09/25 09:34:30;;;;;;;1.40;0.53;;;;;;;;;;12980249;22;21399;-91
2023/09/25 09:39:35;;;;;;;0.50;0.50;;;;;;;;;;12980218;22;20386;-91
2023/09/25 09:44:39;;;;;;;1.30;0.80;;;;;;;;;;12982503;22;20351;-90
2023/09/25 09:49:44;;;;;;;0.70;0.50;;;;;;;;;;12980485;22;20636;-90
2023/09/25 09:54:50;;;;;;;1.77;0.50;;;;;;;;;;12980220;22;20363;-90
2023/09/25 09:59:56;;;;;;;1.05;0.60;;;;;;;;;;12981829;22;20383;-90
2023/09/25 10:04:58;;;;;;;1.65;0.70;;;;;;;;;;12984298;22;20429;-90
2023/09/25 10:10:06;;;;;;;1.70;0.60;;;;;;;;;;12984577;22;20830;-91
2023/09/25 10:15:11;;;;;;;1.53;0.93;;;;;;;;;;12983480;22;20367;-91
2023/09/25 10:20:37;;;;;;;1.37;0.70;;;;;;;;;;12982118;22;20412;-89
2023/09/25 10:25:47;;;;;;;1.60;0.70;;;;;;;;;;12984450;22;20374;-88
2023/09/25 10:30:51;;;;;;;1.13;0.60;;;;;;;;;;12983332;22;20444;-88
2023/09/25 10:36:00;;;;;;;0.73;0.65;;;;;;;;;;12983039;22;20351;-89
2023/09/25 10:41:05;;;;;;;1.20;0.70;;;;;;;;;;12982346;22;20386;-89
2023/09/25 10:46:08;;;;;;;1.10;0.60;;;;;;;;;;12983932;22;20374;-89
2023/09/25 10:51:20;;;;;;;0.82;0.52;;;;;;;;;;12982235;22;20834;-88
2023/09/25 10:56:23;;;;;;;0.80;0.60;;;;;;;;;;12983716;22;20424;-89
2023/09/25 11:01:28;;;;;;;1.27;0.80;;;;;;;;;;12983498;22;20440;-89
2023/09/25 11:06:31;;;;;;;1.30;0.47;;;;;;;;;;12983526;22;20367;-90
2023/09/25 11:11:33;;;;;;;0.65;0.55;;;;;;;;;;12991806;22;20400;-89
2023/09/25 11:16:39;;;;;;;1.75;0.65;;;;;;;;;;12976631;22;20371;-90
2023/09/25 11:21:45;;;;;;;0.98;0.52;;;;;;;;;;12975733;22;20909;-90
2023/09/25 11:26:49;;;;;;;1.30;0.60;;;;;;;;;;12977089;22;20366;-90
2023/09/25 11:31:54;;;;;;;1.77;0.60;;;;;;;;;;12980488;22;20613;-90
2023/09/25 11:36:57;;;;;;;2.17;0.52;;;;;;;;;;12980909;22;20433;-90
2023/09/25 11:42:00;;;;;;;0.87;0.70;;;;;;;;;;12981605;22;20900;-91
2023/09/25 11:47:06;;;;;;;2.05;0.60;;;;;;;;;;12980378;22;20802;-91
2023/09/25 11:52:08;;;;;;;0.70;0.50;;;;;;;;;;12980178;22;20437;-88
2023/09/25 11:57:10;;;;;;;1.17;0.60;;;;;;;;;;12977370;22;20370;-90
2023/09/25 12:02:14;;;;;;;2.38;0.90;;;;;;;;;;12984297;22;20432;-90
2023/09/25 12:07:17;;;;;;;0.80;0.60;;;;;;;;;;13004442;22;21141;-90
2023/09/25 12:12:19;;;;;;;2.17;0.60;;;;;;;;;;12984324;22;20417;-89
2023/09/25 12:17:25;;;;;;;1.20;0.70;;;;;;;;;;12978285;22;20397;-89
2023/09/25 12:22:29;;;;;;;1.90;0.60;;;;;;;;;;13003743;22;20825;-91
2023/09/25 12:27:32;;;;;;;1.53;1.10;;;;;;;;;;12980128;22;20448;-92
2023/09/25 12:32:36;;;;;;;1.10;0.65;;;;;;;;;;13006708;22;20392;-92
2023/09/25 12:37:38;;;;;;;0.60;0.60;;;;;;;;;;12984709;22;20915;-91
2023/09/25 12:42:42;;;;;;;1.27;0.70;;;;;;;;;;12984144;22;20359;-91
2023/09/25 12:47:45;;;;;;;1.77;0.70;;;;;;;;;;12981898;22;20416;-92
2023/09/25 12:52:48;;;;;;;0.73;0.60;;;;;;;;;;13006601;22;20359;-90
2023/09/25 12:57:50;;;;;;;1.10;0.70;;;;;;;;;;12990584;22;20401;-90
2023/09/25 13:02:54;;;;;;;1.83;0.60;;;;;;;;;;12983157;22;20397;-90
2023/09/25 13:07:57;;;;;;;1.70;0.68;;;;;;;;;;12984564;22;20359;-90
2023/09/25 13:12:59;;;;;;;1.27;0.70;;;;;;;;;;12985299;22;20396;-89
2023/09/25 13:18:04;;;;;;;1.60;0.63;;;;;;;;;;12983289;22;20432;-91
2023/09/25 13:23:07;;;;;;;1.60;0.70;;;;;;;;;;13001704;22;20428;-92
2023/09/25 13:28:09;;;;;;;0.80;0.60;;;;;;;;;;12988223;22;20371;-90
2023/09/25 13:33:13;;;;;;;1.50;0.70;;;;;;;;;;12958830;22;20367;-88
2023/09/25 13:38:16;;;;;;;2.07;0.83;;;;;;;;;;12981519;22;20386;-90
2023/09/25 13:43:18;;;;;;;1.43;0.70;;;;;;;;;;12979771;22;20672;-89
2023/09/25 13:48:22;;;;;;;2.30;0.50;;;;;;;;;;13001122;22;20397;-89
2023/09/25 13:53:24;;;;;;;1.50;0.60;;;;;;;;;;13001962;22;20432;-90
2023/09/25 13:58:27;;;;;;;0.82;0.60;;;;;;;;;;12983168;22;20409;-91
2023/09/25 14:03:31;;;;;;;1.30;0.70;;;;;;;;;;12983138;22;20363;-91
2023/09/25 14:08:33;;;;;;;1.40;0.70;;;;;;;;;;12978888;22;20367;-90
2023/09/25 14:13:35;;;;;;;0.73;0.65;;;;;;;;;;12976473;22;20359;-91
2023/09/25 14:18:39;;;;;;;1.52;0.65;;;;;;;;;;12984997;22;20433;-91
2023/09/25 14:23:42;;;;;;;2.08;0.80;;;;;;;;;;12980545;22;20917;-89
2023/09/25 14:28:44;;;;;;;1.98;0.68;;;;;;;;;;12982074;22;20432;-89
2023/09/25 14:33:48;;;;;;;1.60;0.70;;;;;;;;;;12982424;22;20888;-91
2023/09/25 14:38:51;;;;;;;1.00;0.60;;;;;;;;;;13004440;22;20378;-90
2023/09/25 14:43:53;;;;;;;2.38;0.65;;;;;;;;;;13004932;22;20822;-90
2023/09/25 14:48:57;;;;;;;1.37;0.70;;;;;;;;;;12984944;22;20444;-89
2023/09/25 14:54:05;;;;;;;1.77;0.60;;;;;;;;;;13005936;22;20879;-90
2023/09/25 14:59:07;;;;;;;2.60;0.70;;;;;;;;;;12983297;22;20402;-84
2023/09/25 15:04:11;;;;;;;0.77;0.65;;;;;;;;;;12983516;22;20916;-90
2023/09/25 15:09:14;;;;;;;1.83;0.80;;;;;;;;;;13004002;22;20363;-92
2023/09/25 15:14:16;;;;;;;0.67;0.60;;;;;;;;;;12978059;22;20367;-91
2023/09/25 15:19:20;;;;;;;1.23;0.80;;;;;;;;;;12977596;22;20749;-93
2023/09/25 15:24:22;;;;;;;0.65;0.60;;;;;;;;;;12976148;22;20850;-92
2023/09/25 15:29:25;;;;;;;0.85;0.77;;;;;;;;;;12976269;22;21165;-92
2023/09/25 15:34:29;;;;;;;1.52;0.80;;;;;;;;;;12976902;22;20846;-92
2023/09/25 15:39:31;;;;;;;1.70;0.80;;;;;;;;;;12970799;22;20382;-92
2023/09/25 15:44:34;;;;;;;2.20;0.70;;;;;;;;;;12976471;22;20491;-92
2023/09/25 15:49:38;;;;;;;2.60;0.77;;;;;;;;;;12978374;22;20378;-92
2023/09/25 15:54:42;;;;;;;3.03;0.80;;;;;;;;;;12974932;22;20488;-91
2023/09/25 15:59:44;;;;;;;2.75;0.70;;;;;;;;;;12985359;22;20481;-91
2023/09/25 16:04:48;;;;;;;2.45;1.00;;;;;;;;;;12976420;22;20750;-91
2023/09/25 16:09:50;;;;;;;1.98;1.60;;;;;;;;;;12972396;22;20378;-91
2023/09/25 16:14:54;;;;;;;2.08;0.90;;;;;;;;;;12974312;22;20378;-92
2023/09/25 16:19:58;;;;;;;2.90;1.10;;;;;;;;;;12980337;22;20409;-91
2023/09/25 16:25:00;;;;;;;1.77;1.10;;;;;;;;;;12978908;22;20432;-89
2023/09/25 16:30:04;;;;;;;2.05;0.98;;;;;;;;;;12978863;22;20370;-89
2023/09/25 16:35:08;;;;;;;2.40;0.90;;;;;;;;;;12952379;22;20405;-89
2023/09/25 16:40:11;;;;;;;1.60;1.00;;;;;;;;;;12977050;22;20421;-88
2023/09/25 16:45:14;;;;;;;1.90;0.80;;;;;;;;;;12978409;22;20371;-91
2023/09/25 16:50:18;;;;;;;2.63;1.25;;;;;;;;;;12979294;22;20379;-91
2023/09/25 16:55:21;;;;;;;2.67;1.00;;;;;;;;;;12978288;22;20432;-90
2023/09/25 17:06:41;;;;;;;13.82;11.38;;;;;;;;;;13086651;22;20361;-91
2023/09/25 17:11:43;;;;;;;17.48;14.00;;;;;;;;;;13058410;22;20373;-91
2023/09/25 17:16:46;;;;;;;15.10;8.73;;;;;;;;;;13056113;22;20357;-90
2023/09/25 17:21:50;;;;;;;11.20;8.23;;;;;;;;;;13042362;22;20415;-89
2023/09/25 17:26:52;;;;;;;12.27;9.03;;;;;;;;;;13038163;22;20438;-91
2023/09/25 17:31:56;;;;;;;6.60;2.40;;;;;;;;;;13065058;22;20365;-90
2023/09/25 17:37:01;;;;;;;47.87;33.80;;;;;;;;;;13040208;22;20365;-90
2023/09/25 17:42:04;;;;;;;19.95;14.60;;;;;;;;;;13040444;22;20385;-90
2023/09/25 17:47:07;;;;;;;9.68;6.82;;;;;;;;;;13041517;22;20421;-90
2023/09/25 17:52:11;;;;;;;10.82;6.03;;;;;;;;;;13039506;22;20373;-88
2023/09/25 17:57:13;;;;;;;4.65;2.03;;;;;;;;;;13039918;22;20915;-90
2023/09/25 18:02:16;;;;;;;2.78;1.60;;;;;;;;;;13040749;22;20438;-90
2023/09/25 18:07:20;;;;;;;4.50;1.50;;;;;;;;;;13047912;22;20438;-90
2023/09/25 18:12:22;;;;;;;3.87;1.40;;;;;;;;;;13040128;22;20430;-89
2023/09/25 18:17:25;;;;;;;1.70;1.40;;;;;;;;;;13040859;22;20374;-90
2023/09/25 18:22:29;;;;;;;3.60;1.47;;;;;;;;;;13049252;22;20385;-90
2023/09/25 18:27:31;;;;;;;4.63;1.83;;;;;;;;;;13040408;22;20391;-90
2023/09/25 18:32:34;;;;;;;3.72;1.55;;;;;;;;;;13058668;22;20411;-89
2023/09/25 18:37:38;;;;;;;3.45;1.40;;;;;;;;;;13058831;22;20457;-82
2023/09/25 18:42:41;;;;;;;3.10;2.27;;;;;;;;;;13039115;22;20422;-90
2023/09/25 18:47:44;;;;;;;2.60;1.48;;;;;;;;;;13040603;22;20415;-89
2023/09/25 18:52:49;;;;;;;2.90;1.60;;;;;;;;;;13042210;22;20454;-90
2023/09/25 18:57:51;;;;;;;2.65;1.73;;;;;;;;;;13042232;22;20377;-90
2023/09/25 19:02:54;;;;;;;3.33;1.73;;;;;;;;;;13048327;22;20438;-90
2023/09/25 19:08:01;;;;;;;2.50;1.50;;;;;;;;;;13037901;22;20438;-89
2023/09/25 19:13:04;;;;;;;6.03;2.38;;;;;;;;;;13034982;22;21006;-90
2023/09/25 19:18:07;;;;;;;6.63;4.03;;;;;;;;;;13049791;22;20361;-91
2023/09/25 19:23:10;;;;;;;3.25;2.45;;;;;;;;;;13037644;22;20390;-89
2023/09/25 19:28:13;;;;;;;5.18;1.88;;;;;;;;;;13036251;22;20373;-90
2023/09/25 19:33:15;;;;;;;3.33;1.80;;;;;;;;;;13039672;22;20361;-89
2023/09/25 19:38:19;;;;;;;2.95;1.95;;;;;;;;;;13036744;22;20430;-90
2023/09/25 19:43:22;;;;;;;3.38;2.00;;;;;;;;;;13041102;22;20381;-90
2023/09/25 19:48:24;;;;;;;4.20;1.90;;;;;;;;;;13039608;22;20367;-89
2023/09/25 19:53:28;;;;;;;4.07;1.90;;;;;;;;;;13042115;22;20442;-90
2023/09/25 19:58:30;;;;;;;3.33;2.00;;;;;;;;;;13041942;22;20407;-88
2023/09/25 20:03:33;;;;;;;2.27;1.80;;;;;;;;;;13035506;22;20380;-90
2023/09/25 20:08:37;;;;;;;6.28;2.30;;;;;;;;;;13039187;22;20403;-90
2023/09/25 20:13:39;;;;;;;4.40;2.83;;;;;;;;;;13041313;22;20431;-90
2023/09/25 20:18:42;;;;;;;5.65;2.80;;;;;;;;;;13043764;22;20410;-90
2023/09/25 20:23:46;;;;;;;4.50;3.08;;;;;;;;;;13043868;22;20385;-89
2023/09/25 20:28:48;;;;;;;6.87;4.13;;;;;;;;;;13041665;22;20368;-89
2023/09/25 20:33:51;;;;;;;6.25;4.20;;;;;;;;;;13041680;22;20837;-88
2023/09/25 20:38:55;;;;;;;6.60;4.17;;;;;;;;;;13039374;22;20768;-88
2023/09/25 20:43:57;;;;;;;6.88;4.20;;;;;;;;;;13035403;22;20380;-88
2023/09/25 20:49:00;;;;;;;4.83;3.57;;;;;;;;;;13038944;22;20369;-88
2023/09/25 20:54:04;;;;;;;5.15;3.60;;;;;;;;;;13041542;22;20419;-89
2023/09/25 20:59:06;;;;;;;6.57;4.10;;;;;;;;;;13033776;22;20833;-89
2023/09/25 21:04:09;;;;;;;5.78;3.83;;;;;;;;;;13037553;22;20385;-90
2023/09/25 21:09:13;;;;;;;6.63;3.80;;;;;;;;;;13035636;22;20385;-89
2023/09/25 21:14:15;;;;;;;6.20;3.65;;;;;;;;;;13038927;22;20422;-89
2023/09/25 21:19:18;;;;;;;5.82;4.00;;;;;;;;;;13038761;22;20377;-89
2023/09/25 21:24:21;;;;;;;6.35;3.78;;;;;;;;;;13039479;22;20385;-90
2023/09/25 21:29:24;;;;;;;6.00;3.70;;;;;;;;;;13039681;22;20376;-90
2023/09/25 21:34:27;;;;;;;6.90;3.80;;;;;;;;;;13040945;22;20373;-88
2023/09/25 21:39:31;;;;;;;5.07;3.85;;;;;;;;;;13041812;22;20899;-89
2023/09/25 21:44:33;;;;;;;4.25;3.17;;;;;;;;;;13049588;22;20860;-90
2023/09/25 21:49:36;;;;;;;5.47;4.00;;;;;;;;;;13039727;22;20890;-89
2023/09/25 21:54:39;;;;;;;5.43;3.47;;;;;;;;;;13043988;22;20369;-89
2023/09/25 21:59:42;;;;;;;4.38;3.28;;;;;;;;;;13047392;22;20399;-89
2023/09/25 22:04:44;;;;;;;5.43;3.63;;;;;;;;;;13047225;22;20446;-89
2023/09/25 22:09:48;;;;;;;6.90;3.72;;;;;;;;;;13047812;22;20736;-89
2023/09/25 22:14:51;;;;;;;8.00;3.70;;;;;;;;;;13043688;22;20361;-88
2023/09/25 22:19:53;;;;;;;5.60;3.70;;;;;;;;;;13046095;22;20415;-88
2023/09/25 22:24:58;;;;;;;5.63;3.60;;;;;;;;;;13046364;22;20476;-89
2023/09/25 22:30:01;;;;;;;5.27;3.17;;;;;;;;;;13044751;22;20426;-89
2023/09/25 22:35:04;;;;;;;5.88;3.13;;;;;;;;;;13043507;22;20369;-89
2023/09/25 22:40:14;;;;;;;6.25;3.63;;;;;;;;;;13048511;22;20365;-89
2023/09/25 22:45:17;;;;;;;5.07;3.35;;;;;;;;;;13047861;22;20353;-88
2023/09/25 22:50:19;;;;;;;4.53;3.35;;;;;;;;;;13045509;22;20902;-90
2023/09/25 22:55:24;;;;;;;5.68;3.40;;;;;;;;;;13067523;22;20365;-90
2023/09/25 23:00:26;;;;;;;7.95;3.40;;;;;;;;;;13046392;22;20357;-89
2023/09/25 23:05:29;;;;;;;4.72;3.53;;;;;;;;;;13047889;22;20349;-89
2023/09/25 23:10:33;;;;;;;5.40;3.30;;;;;;;;;;13047538;22;20403;-90
2023/09/25 23:15:35;;;;;;;4.47;2.90;;;;;;;;;;13048354;22;20364;-89
2023/09/25 23:20:38;;;;;;;4.10;2.83;;;;;;;;;;13047045;22;20392;-89
2023/09/25 23:25:42;;;;;;;4.27;3.03;;;;;;;;;;13048700;22;20394;-89
2023/09/25 23:30:44;;;;;;;6.73;3.00;;;;;;;;;;13052253;22;20426;-89
2023/09/25 23:35:47;;;;;;;3.53;2.70;;;;;;;;;;13053728;22;20824;-89
2023/09/25 23:40:51;;;;;;;3.42;2.65;;;;;;;;;;13053231;22;20381;-89
2023/09/25 23:45:53;;;;;;;4.68;2.63;;;;;;;;;;13052408;22;20418;-89
2023/09/25 23:50:55;;;;;;;2.97;2.27;;;;;;;;;;13051492;22;20675;-89
2023/09/25 23:56:04;;;;;;;4.10;2.78;;;;;;;;;;13051845;22;20411;-89
